Time;durP1;ratioP1;P1;durP2;ratioP2;P2;SDS_P1;SDS_P2;PMS_P1;PMS_P2;Temp;Humidity;BMP_temperature;BMP_pressure;BME280_temperature;BME280_humidity;BME280_pressure;Samples;Min_cycle;Max_cycle;Signal;HPM_P1;HPM_P2
2021/11/18 00:00:23;;;;;;;25.02;10.63;;;;;;;;;;5052263;28;20100;-36
2021/11/18 00:02:49;;;;;;;19.08;11.00;;;;;;;;;;5052423;28;20091;-36
2021/11/18 00:05:15;;;;;;;27.92;10.20;;;;;;;;;;5052129;28;20048;-36
2021/11/18 00:07:45;;;;;;;18.70;8.10;;;;;;;;;;5052085;28;20063;-36
2021/11/18 00:10:13;;;;;;;23.85;9.98;;;;;;;;;;5051925;28;20044;-37
2021/11/18 00:12:38;;;;;;;18.95;9.73;;;;;;;;;;5051939;28;20033;-36
2021/11/18 00:15:05;;;;;;;21.05;7.47;;;;;;;;;;5052194;28;20043;-36
2021/11/18 00:17:30;;;;;;;21.00;9.18;;;;;;;;;;5052144;28;20033;-36
2021/11/18 00:19:56;;;;;;;19.83;8.60;;;;;;;;;;5052224;28;20082;-36
2021/11/18 00:22:21;;;;;;;19.42;9.38;;;;;;;;;;5051706;28;20403;-36
2021/11/18 00:24:47;;;;;;;17.55;8.60;;;;;;;;;;5051730;28;20033;-36
2021/11/18 00:27:13;;;;;;;15.35;8.18;;;;;;;;;;5051643;28;20021;-36
2021/11/18 00:29:38;;;;;;;17.73;8.73;;;;;;;;;;5050332;28;20033;-36
2021/11/18 00:32:04;;;;;;;18.48;7.50;;;;;;;;;;5051513;28;20499;-36
2021/11/18 00:34:29;;;;;;;19.33;8.88;;;;;;;;;;5051676;28;20013;-36
2021/11/18 00:36:55;;;;;;;23.85;9.73;;;;;;;;;;5051339;28;20107;-37
2021/11/18 00:39:20;;;;;;;25.20;10.20;;;;;;;;;;5051486;28;20412;-36
2021/11/18 00:41:46;;;;;;;19.45;9.10;;;;;;;;;;5033599;28;20029;-36
2021/11/18 00:44:11;;;;;;;20.30;9.48;;;;;;;;;;5051336;28;20483;-37
2021/11/18 00:46:39;;;;;;;19.45;8.35;;;;;;;;;;5033590;28;20051;-36
2021/11/18 00:49:05;;;;;;;18.25;8.82;;;;;;;;;;5051430;28;20479;-36
2021/11/18 00:51:30;;;;;;;17.23;8.15;;;;;;;;;;5051291;28;20162;-37
2021/11/18 00:53:57;;;;;;;20.58;9.43;;;;;;;;;;5033530;28;20427;-36
2021/11/18 00:56:23;;;;;;;20.17;8.18;;;;;;;;;;5049916;28;20068;-37
2021/11/18 00:58:49;;;;;;;18.92;10.25;;;;;;;;;;5016697;28;20083;-37
2021/11/18 01:01:15;;;;;;;19.55;9.05;;;;;;;;;;5051102;28;20032;-36
2021/11/18 01:03:41;;;;;;;18.90;8.48;;;;;;;;;;5051204;28;20028;-37
2021/11/18 01:06:07;;;;;;;23.85;9.48;;;;;;;;;;5033238;28;20029;-36
2021/11/18 01:08:33;;;;;;;16.70;8.10;;;;;;;;;;5049671;28;20025;-36
2021/11/18 01:11:03;;;;;;;19.17;8.05;;;;;;;;;;5051489;28;20040;-36
2021/11/18 01:13:30;;;;;;;17.98;8.50;;;;;;;;;;5051302;28;20379;-37
2021/11/18 01:15:56;;;;;;;17.33;8.73;;;;;;;;;;5049856;28;20131;-36
2021/11/18 01:18:22;;;;;;;21.50;7.45;;;;;;;;;;5033199;28;20025;-36
2021/11/18 01:20:53;;;;;;;19.00;8.32;;;;;;;;;;5049661;28;20025;-36
2021/11/18 01:23:21;;;;;;;17.17;8.52;;;;;;;;;;5033223;28;20040;-36
2021/11/18 01:25:48;;;;;;;21.17;9.27;;;;;;;;;;5049754;28;20056;-37
2021/11/18 01:28:15;;;;;;;20.13;9.27;;;;;;;;;;5051131;28;20052;-36
2021/11/18 01:30:41;;;;;;;20.92;8.82;;;;;;;;;;5049715;28;20460;-36
2021/11/18 01:33:08;;;;;;;18.33;8.27;;;;;;;;;;5032998;28;20028;-36
2021/11/18 01:35:38;;;;;;;24.63;8.82;;;;;;;;;;5032977;28;20025;-36
2021/11/18 01:38:06;;;;;;;11.93;6.47;;;;;;;;;;5049331;28;20080;-36
2021/11/18 01:40:35;;;;;;;16.13;7.18;;;;;;;;;;5050884;28;20037;-36
2021/11/18 01:43:14;;;;;;;14.15;7.40;;;;;;;;;;5032798;28;20029;-37
2021/11/18 01:45:40;;;;;;;14.40;7.90;;;;;;;;;;5033018;28;20044;-36
2021/11/18 01:48:06;;;;;;;17.88;7.53;;;;;;;;;;5049379;28;20459;-37
2021/11/18 01:50:34;;;;;;;19.48;8.43;;;;;;;;;;5050848;28;20029;-36
2021/11/18 01:53:04;;;;;;;19.38;8.90;;;;;;;;;;5032831;28;20021;-36
2021/11/18 01:55:30;;;;;;;14.65;7.78;;;;;;;;;;5032844;28;20033;-36
2021/11/18 01:57:59;;;;;;;15.80;7.53;;;;;;;;;;5049523;28;20039;-36
2021/11/18 02:00:49;;;;;;;19.23;8.02;;;;;;;;;;5012991;28;20072;-37
2021/11/18 02:03:15;;;;;;;12.90;7.63;;;;;;;;;;5049282;28;20390;-37
2021/11/18 02:06:01;;;;;;;15.13;8.07;;;;;;;;;;5051034;28;20032;-37
2021/11/18 02:08:27;;;;;;;20.58;7.18;;;;;;;;;;5049166;28;20029;-36
2021/11/18 02:11:21;;;;;;;14.38;7.57;;;;;;;;;;5050754;28;20463;-37
2021/11/18 02:13:48;;;;;;;14.68;7.68;;;;;;;;;;5052964;28;20036;-37
2021/11/18 02:16:15;;;;;;;18.73;9.27;;;;;;;;;;5036223;28;20028;-36
2021/11/18 02:18:40;;;;;;;19.50;8.40;;;;;;;;;;5052834;28;20033;-37
2021/11/18 02:21:13;;;;;;;13.88;7.30;;;;;;;;;;5052777;28;20056;-36
2021/11/18 02:23:45;;;;;;;17.55;9.00;;;;;;;;;;5053952;28;20138;-36
2021/11/18 02:26:10;;;;;;;21.65;9.02;;;;;;;;;;5052712;28;20028;-36
2021/11/18 02:28:39;;;;;;;13.60;7.03;;;;;;;;;;5052709;28;20025;-36
2021/11/18 02:31:32;;;;;;;14.88;7.35;;;;;;;;;;5052521;28;20036;-37
2021/11/18 02:33:59;;;;;;;15.00;7.35;;;;;;;;;;5034935;28;20036;-37
2021/11/18 02:36:25;;;;;;;17.30;7.07;;;;;;;;;;5053893;28;20054;-36
2021/11/18 02:38:51;;;;;;;15.48;8.32;;;;;;;;;;5035663;28;20041;-36
2021/11/18 02:41:21;;;;;;;14.60;7.20;;;;;;;;;;5052330;28;20040;-37
2021/11/18 02:43:47;;;;;;;12.35;6.97;;;;;;;;;;5052445;28;20140;-36
2021/11/18 02:46:15;;;;;;;10.85;5.38;;;;;;;;;;5052136;28;20025;-36
2021/11/18 02:48:40;;;;;;;14.38;6.68;;;;;;;;;;5053621;28;20361;-36
2021/11/18 02:51:07;;;;;;;17.88;7.68;;;;;;;;;;5035594;28;20013;-36
2021/11/18 02:53:33;;;;;;;9.82;5.85;;;;;;;;;;5035487;28;20267;-36
2021/11/18 02:55:59;;;;;;;13.48;5.93;;;;;;;;;;5053844;28;20519;-36
2021/11/18 02:58:25;;;;;;;19.33;7.35;;;;;;;;;;5052021;28;20545;-37
2021/11/18 03:00:57;;;;;;;11.77;6.13;;;;;;;;;;5035458;28;20502;-36
2021/11/18 03:03:24;;;;;;;13.77;7.30;;;;;;;;;;5053471;28;20031;-36
2021/11/18 03:05:50;;;;;;;12.02;6.05;;;;;;;;;;5053233;28;20482;-36
2021/11/18 03:08:16;;;;;;;15.60;7.10;;;;;;;;;;5035209;28;20029;-36
2021/11/18 03:10:43;;;;;;;12.07;6.45;;;;;;;;;;5051837;28;20127;-37
2021/11/18 03:13:08;;;;;;;13.48;5.60;;;;;;;;;;5053120;28;20053;-36
2021/11/18 03:15:33;;;;;;;10.10;5.70;;;;;;;;;;5053045;28;20049;-36
2021/11/18 03:17:59;;;;;;;11.85;6.10;;;;;;;;;;5035254;28;20053;-36
2021/11/18 03:20:26;;;;;;;11.07;5.43;;;;;;;;;;5035099;28;20403;-37
2021/11/18 03:22:52;;;;;;;8.95;5.53;;;;;;;;;;5050851;28;20094;-36
2021/11/18 03:25:20;;;;;;;11.23;5.35;;;;;;;;;;5051592;28;20499;-36
2021/11/18 03:27:47;;;;;;;9.70;4.80;;;;;;;;;;5034913;28;20033;-36
2021/11/18 03:30:15;;;;;;;10.15;5.78;;;;;;;;;;5052691;28;20029;-36
2021/11/18 03:32:42;;;;;;;9.60;4.97;;;;;;;;;;5034865;28;20484;-37
2021/11/18 03:35:08;;;;;;;10.20;5.63;;;;;;;;;;5034690;28;20032;-36
2021/11/18 03:37:34;;;;;;;10.98;5.85;;;;;;;;;;5051309;28;20388;-36
2021/11/18 03:40:00;;;;;;;7.93;5.00;;;;;;;;;;5034701;28;20178;-36
2021/11/18 03:42:26;;;;;;;8.82;5.47;;;;;;;;;;5051185;28;20021;-36
2021/11/18 03:44:52;;;;;;;9.95;4.32;;;;;;;;;;5034819;28;20028;-36
2021/11/18 03:47:21;;;;;;;6.47;4.25;;;;;;;;;;5051088;28;20372;-36
2021/11/18 03:49:47;;;;;;;8.25;5.38;;;;;;;;;;5052388;28;20040;-36
2021/11/18 03:52:15;;;;;;;6.18;4.07;;;;;;;;;;5052517;28;20036;-36
2021/11/18 03:54:43;;;;;;;8.05;5.07;;;;;;;;;;5051140;28;20071;-36
2021/11/18 03:57:09;;;;;;;10.65;4.75;;;;;;;;;;5050935;28;20033;-36
2021/11/18 03:59:42;;;;;;;;;;;;;;;;;;5051554;28;20025;-37
2021/11/18 04:02:15;;;;;;;9.03;4.83;;;;;;;;;;5034265;28;19913;-36
2021/11/18 04:04:42;;;;;;;8.45;4.10;;;;;;;;;;5050819;28;20031;-36
2021/11/18 04:07:09;;;;;;;10.95;5.22;;;;;;;;;;5034182;28;20426;-36
2021/11/18 04:09:37;;;;;;;11.52;4.72;;;;;;;;;;5050695;28;20456;-36
2021/11/18 04:12:03;;;;;;;10.25;5.50;;;;;;;;;;5051983;28;20048;-36
2021/11/18 04:14:33;;;;;;;6.28;4.40;;;;;;;;;;5034065;28;20040;-37
2021/11/18 04:17:02;;;;;;;11.00;5.15;;;;;;;;;;5050608;28;20399;-36
2021/11/18 04:19:27;;;;;;;8.63;4.85;;;;;;;;;;5050563;28;20029;-37
2021/11/18 04:21:55;;;;;;;10.70;5.28;;;;;;;;;;5033926;28;20024;-37
2021/11/18 04:24:23;;;;;;;8.15;4.80;;;;;;;;;;5051729;28;20033;-36
2021/11/18 04:26:49;;;;;;;9.32;5.50;;;;;;;;;;5033776;28;20107;-36
2021/11/18 04:29:16;;;;;;;8.50;4.57;;;;;;;;;;5033766;28;20075;-36
2021/11/18 04:31:43;;;;;;;10.23;5.13;;;;;;;;;;5033732;28;20022;-36
2021/11/18 04:34:10;;;;;;;10.85;5.22;;;;;;;;;;5032764;28;20025;-36
2021/11/18 04:36:39;;;;;;;12.68;4.88;;;;;;;;;;5051604;28;20025;-37
2021/11/18 04:39:06;;;;;;;9.02;4.07;;;;;;;;;;5050018;28;20045;-36
2021/11/18 04:41:33;;;;;;;9.45;5.57;;;;;;;;;;5033693;28;20040;-36
2021/11/18 04:43:58;;;;;;;8.27;4.60;;;;;;;;;;5050189;28;20029;-36
2021/11/18 04:46:25;;;;;;;8.13;4.45;;;;;;;;;;5033458;28;20434;-36
2021/11/18 04:48:50;;;;;;;8.05;4.47;;;;;;;;;;5050117;28;20040;-36
2021/11/18 04:51:17;;;;;;;8.25;4.57;;;;;;;;;;5049915;28;20021;-37
2021/11/18 04:53:45;;;;;;;8.25;5.00;;;;;;;;;;5050041;28;20391;-36
2021/11/18 04:56:12;;;;;;;11.35;4.43;;;;;;;;;;5049982;28;20025;-36
2021/11/18 04:58:42;;;;;;;7.60;4.72;;;;;;;;;;5050068;28;20040;-36
2021/11/18 05:01:09;;;;;;;6.38;3.85;;;;;;;;;;5049878;28;20029;-36
2021/11/18 05:03:35;;;;;;;7.93;3.60;;;;;;;;;;5033287;28;20035;-36
2021/11/18 05:06:01;;;;;;;8.65;3.72;;;;;;;;;;5049922;28;20459;-36
2021/11/18 05:08:27;;;;;;;8.65;4.03;;;;;;;;;;5049674;28;20037;-36
2021/11/18 05:10:54;;;;;;;6.45;3.50;;;;;;;;;;5049899;28;20025;-36
2021/11/18 05:13:21;;;;;;;5.97;3.45;;;;;;;;;;5051136;28;20463;-36
2021/11/18 05:15:54;;;;;;;7.45;4.30;;;;;;;;;;5033206;28;20063;-36
2021/11/18 05:18:20;;;;;;;9.35;4.60;;;;;;;;;;5051311;28;20032;-36
2021/11/18 05:20:46;;;;;;;7.10;3.20;;;;;;;;;;5049767;28;20032;-37
2021/11/18 05:23:13;;;;;;;7.22;3.88;;;;;;;;;;5051185;28;20123;-36
2021/11/18 05:25:50;;;;;;;6.47;4.10;;;;;;;;;;5033130;28;20061;-36
2021/11/18 05:28:15;;;;;;;4.88;3.85;;;;;;;;;;5033045;28;20055;-36
2021/11/18 05:30:41;;;;;;;7.63;4.90;;;;;;;;;;5051057;28;20529;-36
2021/11/18 05:33:08;;;;;;;8.05;4.18;;;;;;;;;;5049642;28;20025;-36
2021/11/18 05:35:34;;;;;;;11.02;4.50;;;;;;;;;;5051259;28;20104;-37
2021/11/18 05:38:00;;;;;;;10.68;3.85;;;;;;;;;;5032860;28;20069;-36
2021/11/18 05:40:26;;;;;;;6.00;3.95;;;;;;;;;;5033028;28;20029;-37
2021/11/18 05:42:52;;;;;;;6.25;3.65;;;;;;;;;;5049556;28;20041;-36
2021/11/18 05:45:19;;;;;;;6.07;3.80;;;;;;;;;;5049618;28;20052;-36
2021/11/18 05:48:01;;;;;;;6.15;4.32;;;;;;;;;;5053575;28;20134;-37
2021/11/18 05:50:27;;;;;;;8.77;3.55;;;;;;;;;;5053162;28;20195;-36
2021/11/18 05:52:53;;;;;;;8.52;4.97;;;;;;;;;;5054697;28;20023;-36
2021/11/18 05:55:26;;;;;;;11.52;4.20;;;;;;;;;;5053181;28;20115;-36
2021/11/18 05:57:52;;;;;;;16.55;4.90;;;;;;;;;;5036715;28;20120;-36
2021/11/18 06:00:19;;;;;;;8.05;3.88;;;;;;;;;;5053124;28;20119;-37
2021/11/18 06:02:48;;;;;;;9.85;4.50;;;;;;;;;;5054740;28;20025;-36
2021/11/18 06:05:14;;;;;;;7.70;3.80;;;;;;;;;;5036870;28;20021;-36
2021/11/18 06:07:41;;;;;;;5.00;3.63;;;;;;;;;;5053095;28;20369;-37
2021/11/18 06:10:07;;;;;;;8.68;4.35;;;;;;;;;;5036459;28;20044;-37
2021/11/18 06:12:32;;;;;;;6.45;3.88;;;;;;;;;;5036121;28;20028;-36
2021/11/18 06:14:58;;;;;;;7.97;4.40;;;;;;;;;;5052969;28;20029;-37
2021/11/18 06:17:23;;;;;;;8.77;3.92;;;;;;;;;;5036315;28;20025;-36
2021/11/18 06:19:49;;;;;;;6.22;4.43;;;;;;;;;;5052757;28;20094;-36
2021/11/18 06:22:18;;;;;;;5.97;3.85;;;;;;;;;;5052755;28;20029;-36
2021/11/18 06:25:04;;;;;;;6.10;3.22;;;;;;;;;;5053579;28;20037;-37
2021/11/18 06:27:29;;;;;;;10.00;4.53;;;;;;;;;;5036076;28;20025;-36
2021/11/18 06:29:57;;;;;;;9.85;4.85;;;;;;;;;;5036046;28;20055;-36
2021/11/18 06:32:23;;;;;;;5.32;2.97;;;;;;;;;;5035886;28;20072;-37
2021/11/18 06:34:50;;;;;;;6.82;3.53;;;;;;;;;;5035939;28;20044;-36
2021/11/18 06:37:16;;;;;;;8.00;3.97;;;;;;;;;;5052416;28;20139;-37
2021/11/18 06:39:44;;;;;;;5.57;3.03;;;;;;;;;;5035960;28;20033;-36
2021/11/18 06:42:11;;;;;;;7.18;4.85;;;;;;;;;;5035708;28;20054;-36
2021/11/18 06:44:38;;;;;;;6.78;3.58;;;;;;;;;;5052465;28;20467;-36
2021/11/18 06:47:04;;;;;;;6.45;4.03;;;;;;;;;;5052322;28;20035;-37
2021/11/18 06:49:30;;;;;;;7.95;4.72;;;;;;;;;;5052194;28;20479;-37
2021/11/18 06:51:56;;;;;;;10.93;5.13;;;;;;;;;;5052322;28;20039;-37
2021/11/18 06:54:22;;;;;;;8.75;4.18;;;;;;;;;;5052035;28;20029;-36
2021/11/18 06:56:48;;;;;;;9.40;4.53;;;;;;;;;;5053235;28;20033;-37
2021/11/18 06:59:14;;;;;;;5.22;3.85;;;;;;;;;;5052919;28;20071;-36
2021/11/18 07:01:41;;;;;;;9.73;5.07;;;;;;;;;;5053289;28;20021;-37
2021/11/18 07:04:08;;;;;;;9.38;4.85;;;;;;;;;;5052114;28;20028;-36
2021/11/18 07:06:35;;;;;;;9.52;5.28;;;;;;;;;;5035292;28;20024;-37
2021/11/18 07:09:05;;;;;;;10.98;5.30;;;;;;;;;;5051871;28;20029;-36
2021/11/18 07:11:35;;;;;;;7.00;3.72;;;;;;;;;;5051721;28;20498;-36
2021/11/18 07:14:01;;;;;;;11.98;4.55;;;;;;;;;;5051840;28;20020;-36
2021/11/18 07:16:28;;;;;;;6.00;4.35;;;;;;;;;;5051686;28;20037;-36
2021/11/18 07:18:53;;;;;;;5.25;3.55;;;;;;;;;;5035173;28;20025;-36
2021/11/18 07:21:22;;;;;;;8.80;4.05;;;;;;;;;;5052955;28;20021;-36
2021/11/18 07:23:49;;;;;;;9.07;4.97;;;;;;;;;;5034997;28;20025;-37
2021/11/18 07:26:15;;;;;;;8.18;3.83;;;;;;;;;;5051643;28;20025;-36
2021/11/18 07:28:42;;;;;;;9.63;5.50;;;;;;;;;;5035027;28;20025;-36
2021/11/18 07:31:11;;;;;;;9.98;4.38;;;;;;;;;;5051435;28;20044;-37
2021/11/18 07:33:44;;;;;;;10.35;4.10;;;;;;;;;;5051576;28;20017;-37
2021/11/18 07:36:10;;;;;;;4.18;2.53;;;;;;;;;;5051383;28;20029;-36
2021/11/18 07:38:36;;;;;;;10.20;4.68;;;;;;;;;;5034741;28;20049;-37
2021/11/18 07:41:05;;;;;;;7.57;4.13;;;;;;;;;;5051269;28;20032;-36
2021/11/18 07:43:34;;;;;;;13.82;4.30;;;;;;;;;;5034585;28;20028;-36
2021/11/18 07:46:22;;;;;;;7.03;3.92;;;;;;;;;;5052114;28;20041;-36
2021/11/18 07:48:59;;;;;;;9.15;4.05;;;;;;;;;;5051160;28;20037;-36
2021/11/18 07:51:31;;;;;;;8.80;4.63;;;;;;;;;;5051023;28;20036;-36
2021/11/18 07:53:57;;;;;;;8.18;4.28;;;;;;;;;;5052704;28;20032;-36
2021/11/18 07:56:23;;;;;;;13.75;5.70;;;;;;;;;;5050989;28;20071;-36
2021/11/18 07:58:50;;;;;;;8.43;5.07;;;;;;;;;;5052305;28;20064;-36
2021/11/18 08:01:21;;;;;;;8.80;4.30;;;;;;;;;;5034235;28;20399;-36
2021/11/18 08:03:48;;;;;;;4.03;2.40;;;;;;;;;;5034247;28;20036;-36
2021/11/18 08:06:20;;;;;;;;;;;;;;;;;;5051233;28;20383;-36
2021/11/18 08:08:50;;;;;;;7.40;3.47;;;;;;;;;;5033971;28;19983;-36
2021/11/18 08:11:23;;;;;;;8.10;4.18;;;;;;;;;;5034045;28;20025;-36
2021/11/18 08:13:50;;;;;;;7.50;4.32;;;;;;;;;;5050653;28;20025;-36
2021/11/18 08:16:15;;;;;;;6.18;4.28;;;;;;;;;;5050746;28;20463;-36
2021/11/18 08:18:45;;;;;;;9.27;4.53;;;;;;;;;;5050596;28;20025;-36
2021/11/18 08:21:11;;;;;;;8.57;4.10;;;;;;;;;;5050451;28;20067;-36
2021/11/18 08:23:37;;;;;;;8.85;4.45;;;;;;;;;;5050368;28;20033;-36
2021/11/18 08:26:04;;;;;;;5.13;2.50;;;;;;;;;;5050512;28;20017;-37
2021/11/18 08:28:31;;;;;;;7.03;4.05;;;;;;;;;;5033746;28;20037;-36
2021/11/18 08:30:57;;;;;;;5.82;3.42;;;;;;;;;;5050326;28;20037;-36
2021/11/18 08:33:23;;;;;;;7.70;4.53;;;;;;;;;;5051871;28;20040;-36
2021/11/18 08:35:48;;;;;;;6.47;3.88;;;;;;;;;;5052005;28;20490;-36
2021/11/18 08:38:15;;;;;;;9.27;4.20;;;;;;;;;;5050102;28;20427;-36
2021/11/18 08:40:44;;;;;;;5.65;3.13;;;;;;;;;;5033656;28;20087;-36
2021/11/18 08:43:09;;;;;;;7.00;3.80;;;;;;;;;;5033636;28;20357;-36
2021/11/18 08:45:37;;;;;;;10.82;4.30;;;;;;;;;;5051479;28;20104;-36
2021/11/18 08:48:05;;;;;;;7.53;3.95;;;;;;;;;;5033494;28;20029;-36
2021/11/18 08:50:31;;;;;;;8.20;4.63;;;;;;;;;;5033377;28;20136;-37
2021/11/18 08:52:57;;;;;;;9.52;4.97;;;;;;;;;;5050141;28;20032;-36
2021/11/18 08:55:25;;;;;;;6.95;4.35;;;;;;;;;;5049955;28;20021;-41
2021/11/18 08:57:52;;;;;;;10.88;5.40;;;;;;;;;;5017280;28;20483;-36
2021/11/18 09:00:43;;;;;;;9.88;3.95;;;;;;;;;;5043014;28;20446;-36
2021/11/18 09:03:18;;;;;;;10.43;4.82;;;;;;;;;;5033287;28;20043;-36
2021/11/18 09:05:44;;;;;;;10.82;5.53;;;;;;;;;;5050240;28;20758;-37
2021/11/18 09:08:10;;;;;;;4.35;2.47;;;;;;;;;;5049994;28;20075;-36
2021/11/18 09:10:36;;;;;;;7.30;3.63;;;;;;;;;;5049757;28;20040;-37
2021/11/18 09:13:03;;;;;;;7.30;4.05;;;;;;;;;;5049925;28;20013;-36
2021/11/18 09:15:29;;;;;;;8.18;4.75;;;;;;;;;;5049845;28;20778;-36
2021/11/18 09:17:57;;;;;;;11.25;4.47;;;;;;;;;;5049797;28;20399;-37
2021/11/18 09:20:47;;;;;;;8.50;4.07;;;;;;;;;;5043677;28;20537;-36
2021/11/18 09:23:14;;;;;;;7.60;3.58;;;;;;;;;;5055388;28;20028;-36
2021/11/18 09:25:43;;;;;;;10.82;5.78;;;;;;;;;;5053952;28;20034;-36
2021/11/18 09:28:10;;;;;;;6.72;4.00;;;;;;;;;;5037304;28;20029;-36
2021/11/18 09:30:44;;;;;;;9.15;4.85;;;;;;;;;;5053793;28;20056;-36
2021/11/18 09:33:10;;;;;;;7.68;4.20;;;;;;;;;;5037189;28;20025;-37
2021/11/18 09:35:38;;;;;;;12.15;4.85;;;;;;;;;;5053743;28;20406;-36
2021/11/18 09:38:05;;;;;;;10.55;4.60;;;;;;;;;;5036815;28;20556;-36
2021/11/18 09:40:57;;;;;;;8.10;3.33;;;;;;;;;;5053599;28;20072;-36
2021/11/18 09:43:59;;;;;;;12.00;5.10;;;;;;;;;;5036409;28;20132;-36
2021/11/18 09:46:26;;;;;;;8.48;4.57;;;;;;;;;;5015166;28;20086;-37
2021/11/18 09:49:00;;;;;;;8.65;4.22;;;;;;;;;;5036891;28;20483;-36
2021/11/18 09:51:45;;;;;;;8.30;4.35;;;;;;;;;;5053336;28;20041;-37
2021/11/18 09:54:14;;;;;;;13.13;3.97;;;;;;;;;;5036791;28;20360;-37
2021/11/18 09:56:47;;;;;;;11.55;5.22;;;;;;;;;;5036741;28;20025;-36
2021/11/18 09:59:25;;;;;;;7.50;3.38;;;;;;;;;;5036658;28;20078;-36
2021/11/18 10:01:59;;;;;;;10.98;4.90;;;;;;;;;;5036628;28;20444;-36
2021/11/18 10:04:39;;;;;;;11.35;5.47;;;;;;;;;;5054389;28;20021;-37
2021/11/18 10:07:17;;;;;;;7.57;4.03;;;;;;;;;;5053183;28;20364;-37
2021/11/18 10:09:48;;;;;;;10.05;5.25;;;;;;;;;;5053007;28;20047;-36
2021/11/18 10:12:30;;;;;;;11.68;4.85;;;;;;;;;;5052968;28;20029;-36
2021/11/18 10:14:59;;;;;;;8.27;3.53;;;;;;;;;;5036426;28;20044;-36
2021/11/18 10:17:32;;;;;;;11.85;5.65;;;;;;;;;;5052983;28;20021;-36
2021/11/18 10:20:19;;;;;;;10.55;5.18;;;;;;;;;;5053579;28;20123;-36
2021/11/18 10:22:49;;;;;;;6.80;3.47;;;;;;;;;;5054080;28;20033;-36
2021/11/18 10:25:17;;;;;;;9.05;5.63;;;;;;;;;;5054069;28;20472;-36
2021/11/18 10:27:46;;;;;;;7.88;4.30;;;;;;;;;;5054013;28;20083;-36
2021/11/18 10:30:11;;;;;;;10.85;4.60;;;;;;;;;;5053993;28;20083;-36
2021/11/18 10:32:46;;;;;;;11.18;4.82;;;;;;;;;;5054044;28;20033;-36
2021/11/18 10:35:24;;;;;;;8.10;3.95;;;;;;;;;;5053882;28;20035;-36
2021/11/18 10:37:50;;;;;;;10.98;5.30;;;;;;;;;;5053742;28;20098;-36
2021/11/18 10:40:24;;;;;;;8.90;4.22;;;;;;;;;;5054031;28;20100;-36
2021/11/18 10:43:14;;;;;;;12.73;4.40;;;;;;;;;;5053658;28;20462;-36
2021/11/18 10:45:41;;;;;;;9.40;4.40;;;;;;;;;;5053814;28;20055;-36
2021/11/18 10:48:16;;;;;;;9.05;4.40;;;;;;;;;;5053618;28;20479;-36
2021/11/18 10:50:49;;;;;;;9.77;4.50;;;;;;;;;;5053512;28;20045;-36
2021/11/18 10:53:15;;;;;;;;;;;;;;;;;;5054072;28;20087;-36
2021/11/18 10:55:41;;;;;;;7.13;3.72;;;;;;;;;;5053567;28;19913;-36
2021/11/18 10:58:13;;;;;;;9.80;4.63;;;;;;;;;;5053596;28;20383;-36
2021/11/18 11:00:40;;;;;;;13.50;4.70;;;;;;;;;;5053939;28;20025;-37
2021/11/18 11:03:24;;;;;;;6.22;3.42;;;;;;;;;;5053455;28;20272;-36
2021/11/18 11:06:05;;;;;;;5.97;4.07;;;;;;;;;;5053389;28;20104;-37
2021/11/18 11:08:31;;;;;;;10.00;4.95;;;;;;;;;;5053096;28;20054;-37
2021/11/18 11:11:06;;;;;;;8.10;4.82;;;;;;;;;;5035465;28;20115;-36
2021/11/18 11:13:37;;;;;;;11.18;4.55;;;;;;;;;;5053395;28;20439;-36
2021/11/18 11:16:26;;;;;;;6.05;3.65;;;;;;;;;;5053526;28;20482;-36
2021/11/18 11:19:00;;;;;;;8.98;4.25;;;;;;;;;;5052681;28;20031;-36
2021/11/18 11:21:28;;;;;;;9.40;5.05;;;;;;;;;;5053258;28;20507;-36
2021/11/18 11:24:30;;;;;;;7.43;4.85;;;;;;;;;;5053288;28;20147;-36
2021/11/18 11:26:55;;;;;;;9.90;4.53;;;;;;;;;;5010791;28;20042;-37
2021/11/18 11:29:41;;;;;;;9.70;4.50;;;;;;;;;;5043989;28;20068;-36
2021/11/18 11:32:12;;;;;;;11.77;5.53;;;;;;;;;;5052420;28;20032;-36
2021/11/18 11:34:55;;;;;;;5.25;3.53;;;;;;;;;;5053022;28;20064;-36
2021/11/18 11:37:40;;;;;;;10.40;4.57;;;;;;;;;;5052582;28;20064;-36
2021/11/18 11:40:08;;;;;;;10.98;4.78;;;;;;;;;;5052903;28;20094;-36
2021/11/18 11:42:33;;;;;;;7.05;3.72;;;;;;;;;;5052592;28;20067;-37
2021/11/18 11:44:58;;;;;;;5.40;3.30;;;;;;;;;;5050845;28;20468;-36
2021/11/18 11:47:27;;;;;;;10.82;3.95;;;;;;;;;;5052473;28;20083;-36
2021/11/18 11:50:15;;;;;;;6.82;4.28;;;;;;;;;;5052551;28;20041;-36
2021/11/18 11:53:01;;;;;;;7.20;4.82;;;;;;;;;;5031644;28;20067;-36
2021/11/18 11:55:34;;;;;;;7.90;4.90;;;;;;;;;;5052321;28;20535;-36
2021/11/18 11:58:00;;;;;;;9.18;4.15;;;;;;;;;;5051069;28;20029;-36
2021/11/18 12:00:46;;;;;;;9.88;4.30;;;;;;;;;;5052082;28;20017;-39
2021/11/18 12:03:25;;;;;;;7.82;3.63;;;;;;;;;;5052305;28;20025;-36
2021/11/18 12:05:54;;;;;;;9.13;3.90;;;;;;;;;;5052221;28;20029;-36
2021/11/18 12:08:33;;;;;;;5.40;3.20;;;;;;;;;;5052129;28;20027;-36
2021/11/18 12:10:59;;;;;;;2.80;2.30;;;;;;;;;;5052421;28;20111;-36
2021/11/18 12:13:43;;;;;;;9.32;4.32;;;;;;;;;;5052105;28;20460;-36
2021/11/18 12:16:09;;;;;;;8.93;4.43;;;;;;;;;;5052328;28;20583;-41
2021/11/18 12:18:41;;;;;;;9.43;5.32;;;;;;;;;;5050633;28;20048;-37
2021/11/18 12:21:08;;;;;;;5.63;3.90;;;;;;;;;;5051948;28;20029;-36
2021/11/18 12:23:52;;;;;;;8.98;4.40;;;;;;;;;;5052034;28;20025;-36
2021/11/18 12:26:17;;;;;;;6.13;3.60;;;;;;;;;;5052068;28;20298;-36
2021/11/18 12:29:07;;;;;;;7.90;4.03;;;;;;;;;;5051681;28;20029;-36
2021/11/18 12:31:33;;;;;;;6.18;4.45;;;;;;;;;;5032347;28;20036;-36
2021/11/18 12:34:02;;;;;;;8.20;4.22;;;;;;;;;;5033891;28;20017;-36
2021/11/18 12:36:48;;;;;;;5.22;3.42;;;;;;;;;;5051551;28;20380;-37
2021/11/18 12:39:16;;;;;;;7.82;3.35;;;;;;;;;;5012251;28;20046;-36
2021/11/18 12:41:42;;;;;;;9.07;4.28;;;;;;;;;;5012249;28;20121;-41
2021/11/18 12:44:20;;;;;;;3.95;3.00;;;;;;;;;;5012129;28;20127;-36
2021/11/18 12:47:01;;;;;;;7.68;4.07;;;;;;;;;;5012232;28;20045;-36
2021/11/18 12:49:50;;;;;;;9.30;5.13;;;;;;;;;;5011718;28;20069;-36
2021/11/18 12:52:19;;;;;;;6.40;3.60;;;;;;;;;;5011698;28;20026;-36
2021/11/18 12:55:03;;;;;;;7.15;3.05;;;;;;;;;;5026752;28;20025;-36
2021/11/18 12:57:29;;;;;;;7.07;3.90;;;;;;;;;;5011384;28;20028;-36
2021/11/18 12:59:57;;;;;;;6.88;3.90;;;;;;;;;;5011774;28;20014;-37
2021/11/18 13:02:28;;;;;;;5.78;3.40;;;;;;;;;;5011569;28;20038;-36
2021/11/18 13:04:58;;;;;;;3.22;2.40;;;;;;;;;;5011683;28;20034;-36
2021/11/18 13:07:35;;;;;;;6.05;3.28;;;;;;;;;;5011665;28;20029;-36
2021/11/18 13:10:16;;;;;;;8.20;3.83;;;;;;;;;;5011639;28;20045;-36
2021/11/18 13:12:42;;;;;;;8.07;3.08;;;;;;;;;;5011754;28;20033;-36
2021/11/18 13:15:10;;;;;;;6.18;3.33;;;;;;;;;;5011658;28;20033;-36
2021/11/18 13:17:37;;;;;;;7.28;3.17;;;;;;;;;;5011665;28;20036;-36
2021/11/18 13:20:07;;;;;;;5.10;2.80;;;;;;;;;;5011802;28;20018;-36
2021/11/18 13:22:38;;;;;;;5.45;3.63;;;;;;;;;;5011411;28;20087;-36
2021/11/18 13:25:03;;;;;;;7.78;3.33;;;;;;;;;;5011486;28;20129;-36
2021/11/18 13:27:31;;;;;;;6.03;3.58;;;;;;;;;;5011393;28;20112;-36
2021/11/18 13:29:58;;;;;;;5.60;3.17;;;;;;;;;;5011330;28;20042;-36
2021/11/18 13:32:25;;;;;;;4.35;3.05;;;;;;;;;;5026379;28;20076;-36
2021/11/18 13:35:10;;;;;;;6.80;3.13;;;;;;;;;;5011409;28;20045;-36
2021/11/18 13:37:40;;;;;;;8.88;3.85;;;;;;;;;;5024154;28;20049;-36
2021/11/18 13:40:09;;;;;;;6.15;3.47;;;;;;;;;;5050918;28;20028;-37
2021/11/18 13:42:37;;;;;;;8.05;3.97;;;;;;;;;;5050803;28;20110;-37
2021/11/18 13:45:22;;;;;;;5.70;3.35;;;;;;;;;;5050918;28;20021;-36
2021/11/18 13:47:52;;;;;;;8.45;3.97;;;;;;;;;;5050793;28;20041;-36
2021/11/18 13:50:19;;;;;;;6.35;3.42;;;;;;;;;;5050661;28;20221;-37
2021/11/18 13:52:54;;;;;;;5.63;3.10;;;;;;;;;;5050865;28;20028;-37
2021/11/18 13:55:35;;;;;;;6.45;3.78;;;;;;;;;;5050679;28;20056;-36
2021/11/18 13:58:09;;;;;;;6.47;3.60;;;;;;;;;;5050677;28;20051;-36
2021/11/18 14:00:36;;;;;;;3.92;2.17;;;;;;;;;;5050858;28;20105;-36
2021/11/18 14:03:19;;;;;;;6.95;2.88;;;;;;;;;;5050733;28;20013;-36
2021/11/18 14:05:47;;;;;;;5.68;3.53;;;;;;;;;;5033160;28;20025;-36
2021/11/18 14:08:12;;;;;;;6.68;3.25;;;;;;;;;;5035981;28;20474;-36
2021/11/18 14:10:40;;;;;;;7.57;3.97;;;;;;;;;;5054147;28;20119;-36
2021/11/18 14:13:08;;;;;;;5.97;2.95;;;;;;;;;;5054489;28;20017;-36
2021/11/18 14:15:35;;;;;;;4.63;3.08;;;;;;;;;;5054123;28;20064;-37
2021/11/18 14:18:20;;;;;;;6.65;3.80;;;;;;;;;;5054272;28;20017;-36
2021/11/18 14:21:05;;;;;;;6.43;2.67;;;;;;;;;;5053739;28;20094;-37
2021/11/18 14:23:36;;;;;;;6.43;2.75;;;;;;;;;;5054377;28;20100;-37
2021/11/18 14:26:22;;;;;;;5.03;3.10;;;;;;;;;;5054314;28;20028;-37
2021/11/18 14:28:47;;;;;;;5.70;2.95;;;;;;;;;;5054037;28;20061;-36
2021/11/18 14:31:25;;;;;;;13.60;4.15;;;;;;;;;;5053886;28;20056;-36
2021/11/18 14:34:03;;;;;;;5.63;3.15;;;;;;;;;;5053964;28;20029;-36
2021/11/18 14:36:35;;;;;;;4.07;2.42;;;;;;;;;;5054094;28;20387;-36
2021/11/18 14:39:20;;;;;;;5.15;2.92;;;;;;;;;;5053488;28;20068;-36
2021/11/18 14:41:53;;;;;;;6.72;3.15;;;;;;;;;;5053465;28;20120;-38
2021/11/18 14:44:28;;;;;;;5.73;3.40;;;;;;;;;;5053630;28;20655;-36
2021/11/18 14:46:56;;;;;;;5.53;2.97;;;;;;;;;;5053825;28;20091;-37
2021/11/18 14:49:34;;;;;;;5.78;3.35;;;;;;;;;;5053756;28;20017;-37
2021/11/18 14:52:26;;;;;;;6.57;3.60;;;;;;;;;;5053572;28;20060;-37
2021/11/18 14:55:07;;;;;;;4.35;3.17;;;;;;;;;;5053928;28;20537;-36